createdAt,value
2018-07-23T00:02:03.017Z,91.20
2018-07-23T00:04:34.467Z,91.50
2018-07-23T00:07:04.563Z,91.80
2018-07-23T00:09:34.548Z,92.00
2018-07-23T00:12:04.194Z,91.30
2018-07-23T00:14:33.459Z,91.60
2018-07-23T00:17:03.594Z,91.80
2018-07-23T00:19:34.102Z,91.80
2018-07-23T00:22:04.070Z,91.80
2018-07-23T00:24:33.953Z,92.10
2018-07-23T00:27:04.537Z,92.30
2018-07-23T00:29:34.180Z,92.60
2018-07-23T00:32:04.014Z,93.20
2018-07-23T00:34:34.731Z,93.10
2018-07-23T00:39:34.654Z,92.90
2018-07-23T00:42:04.658Z,93.30
2018-07-23T00:44:34.058Z,93.60
2018-07-23T00:47:03.949Z,93.30
2018-07-23T00:49:34.702Z,93.70
2018-07-23T00:52:04.881Z,93.80
2018-07-23T00:54:34.566Z,93.90
2018-07-23T00:59:33.986Z,94.00
2018-07-23T01:02:03.946Z,94.20
2018-07-23T01:04:34.751Z,94.30
2018-07-23T01:07:04.439Z,94.40
2018-07-23T01:09:33.982Z,94.40
2018-07-23T01:12:04.682Z,94.70
2018-07-23T01:14:35.182Z,94.60
2018-07-23T01:19:36.614Z,95.00
2018-07-23T01:22:06.566Z,95.10
2018-07-23T01:24:35.770Z,95.50
2018-07-23T01:27:05.742Z,95.20
2018-07-23T01:29:36.710Z,95.30
2018-07-23T01:32:06.788Z,95.60
2018-07-23T01:34:36.333Z,95.80
2018-07-23T01:37:08.442Z,95.90
2018-07-23T01:39:37.986Z,95.90
2018-07-23T01:42:07.838Z,96.30
2018-07-23T01:44:38.106Z,95.80
2018-07-23T01:47:09.719Z,96.10
2018-07-23T01:49:39.171Z,96.30
2018-07-23T01:52:09.103Z,96.40
2018-07-23T01:54:39.672Z,96.30
2018-07-23T01:57:10.562Z,96.30
2018-07-23T01:59:41.434Z,96.60
2018-07-23T02:02:12.598Z,97.10
2018-07-23T02:04:43.555Z,97.10
2018-07-23T02:07:13.071Z,97.10
2018-07-23T02:09:43.581Z,97.40
2018-07-23T02:12:14.447Z,96.90
2018-07-23T02:14:44.334Z,97.20
2018-07-23T02:17:14.131Z,97.40
2018-07-23T02:19:44.578Z,97.70
2018-07-23T02:22:14.779Z,97.80
2018-07-23T02:24:45.389Z,97.60
2018-07-23T02:27:15.698Z,97.70
2018-07-23T02:29:45.710Z,97.80
2018-07-23T02:32:15.617Z,98.40
2018-07-23T02:37:14.704Z,98.10
2018-07-23T02:39:44.729Z,98.40
2018-07-23T02:42:15.096Z,98.30
2018-07-23T02:44:44.711Z,98.60
2018-07-23T02:47:14.595Z,98.60
2018-07-23T02:49:44.608Z,98.90
2018-07-23T02:52:15.015Z,99.20
2018-07-23T02:54:45.603Z,99.20
2018-07-23T02:57:15.591Z,99.00
2018-07-23T02:59:45.876Z,99.30
2018-07-23T03:02:15.675Z,99.30
2018-07-23T03:04:44.870Z,99.10
2018-07-23T03:07:14.456Z,99.50
2018-07-23T03:09:44.851Z,99.70
2018-07-23T03:12:14.744Z,99.60
2018-07-23T03:14:44.971Z,99.50
2018-07-23T03:17:15.222Z,99.40
2018-07-23T03:19:45.439Z,99.60
2018-07-23T03:22:15.284Z,99.90
2018-07-23T03:24:44.621Z,99.60
2018-07-23T03:27:14.454Z,99.80
2018-07-23T03:29:45.287Z,99.90
2018-07-23T03:32:15.371Z,99.90
2018-07-23T03:34:46.407Z,99.90
2018-07-23T03:39:46.374Z,99.90
2018-07-23T03:42:17.394Z,99.90
2018-07-23T03:44:48.573Z,99.90
2018-07-23T03:47:18.127Z,99.90
2018-07-23T03:49:48.846Z,99.90
2018-07-23T03:52:18.615Z,99.90
2018-07-23T03:54:49.428Z,99.90
2018-07-23T03:57:19.499Z,99.90
2018-07-23T03:59:49.451Z,99.90
2018-07-23T04:04:47.926Z,99.90
2018-07-23T04:07:18.345Z,99.90
2018-07-23T04:09:47.982Z,99.90
2018-07-23T04:12:17.870Z,99.90
2018-07-23T04:14:48.287Z,99.90
2018-07-23T04:17:17.782Z,99.90
2018-07-23T04:22:17.843Z,99.90
2018-07-23T04:24:47.271Z,99.90
2018-07-23T04:27:17.519Z,99.90
2018-07-23T04:29:47.706Z,99.90
2018-07-23T04:32:17.658Z,99.90
2018-07-23T04:34:47.761Z,99.90
2018-07-23T04:37:17.657Z,99.90
2018-07-23T04:39:47.378Z,99.90
2018-07-23T04:42:17.758Z,99.90
2018-07-23T04:44:47.645Z,99.90
2018-07-23T04:47:17.527Z,99.90
2018-07-23T04:49:47.558Z,99.90
2018-07-23T04:52:17.267Z,99.90
2018-07-23T04:54:47.696Z,99.90
2018-07-23T04:57:17.650Z,99.90
2018-07-23T04:59:48.367Z,99.90
2018-07-23T05:02:18.604Z,99.90
2018-07-23T05:04:48.383Z,99.90
2018-07-23T05:07:18.542Z,99.90
2018-07-23T05:09:48.954Z,99.90
2018-07-23T05:12:18.769Z,99.90
2018-07-23T05:14:48.098Z,99.90
2018-07-23T05:17:17.974Z,99.90
2018-07-23T05:19:47.790Z,99.90
2018-07-23T05:22:16.911Z,99.90
2018-07-23T05:24:46.919Z,99.90
2018-07-23T05:27:18.622Z,99.90
2018-07-23T05:29:48.610Z,99.90
2018-07-23T05:32:17.787Z,99.90
2018-07-23T05:34:47.099Z,99.90
2018-07-23T05:37:16.839Z,99.90
2018-07-23T05:39:47.590Z,99.90
2018-07-23T05:42:16.771Z,99.90
2018-07-23T05:44:46.833Z,99.90
2018-07-23T05:47:16.831Z,99.90
2018-07-23T05:49:47.390Z,99.90
2018-07-23T05:52:17.518Z,99.90
2018-07-23T05:54:48.186Z,99.90
2018-07-23T05:57:18.510Z,99.90
2018-07-23T05:59:48.683Z,99.90
2018-07-23T06:02:19.355Z,99.90
2018-07-23T06:04:49.422Z,99.90
2018-07-23T06:07:19.590Z,99.90
2018-07-23T06:09:49.050Z,99.90
2018-07-23T06:12:18.590Z,99.60
2018-07-23T06:14:49.103Z,99.00
2018-07-23T06:17:18.703Z,98.40
2018-07-23T06:19:49.045Z,99.00
2018-07-23T06:22:18.831Z,98.50
2018-07-23T06:24:48.694Z,98.30
2018-07-23T06:27:23.385Z,97.80
2018-07-23T06:29:53.062Z,98.10
2018-07-23T06:32:22.666Z,97.50
2018-07-23T06:34:51.862Z,97.70
2018-07-23T06:37:21.883Z,97.00
2018-07-23T06:39:52.095Z,97.50
2018-07-23T06:44:53.205Z,97.10
2018-07-23T06:47:23.594Z,95.50
2018-07-23T06:49:53.323Z,95.80
2018-07-23T06:52:23.482Z,94.80
2018-07-23T06:54:53.007Z,93.90
2018-07-23T06:57:22.673Z,94.10
2018-07-23T06:59:52.074Z,94.60
2018-07-23T07:02:22.370Z,93.70
2018-07-23T07:04:51.694Z,93.90
2018-07-23T07:07:22.482Z,92.30
2018-07-23T07:09:53.378Z,92.70
2018-07-23T07:12:23.724Z,92.40
2018-07-23T07:14:54.247Z,92.20
2018-07-23T07:17:24.209Z,92.00
2018-07-23T07:19:54.253Z,92.20
2018-07-23T07:22:24.825Z,92.50
2018-07-23T07:24:54.523Z,91.80
2018-07-23T07:27:24.831Z,90.60
2018-07-23T07:29:56.587Z,90.50
2018-07-23T07:32:27.014Z,88.70
2018-07-23T07:34:57.187Z,89.50
2018-07-23T07:37:28.514Z,87.70
2018-07-23T07:39:58.905Z,87.40
2018-07-23T07:42:30.294Z,87.90
2018-07-23T07:45:00.046Z,85.40
2018-07-23T07:47:30.508Z,81.60
2018-07-23T07:50:01.483Z,81.40
2018-07-23T07:52:31.460Z,82.50
2018-07-23T07:55:00.643Z,81.80
2018-07-23T07:57:30.515Z,80.70
2018-07-23T08:00:00.836Z,76.30
2018-07-23T08:02:31.273Z,76.80
2018-07-23T08:05:01.966Z,76.60
2018-07-23T08:07:31.872Z,75.80
2018-07-23T08:10:01.779Z,72.10
2018-07-23T08:12:32.638Z,73.30
2018-07-23T08:15:04.607Z,72.70
2018-07-23T08:17:34.828Z,73.30
2018-07-23T08:20:04.943Z,73.70
2018-07-23T08:22:34.865Z,73.50
2018-07-23T08:25:04.996Z,74.40
2018-07-23T08:27:35.377Z,74.70
2018-07-23T08:30:05.946Z,75.30
2018-07-23T08:32:36.382Z,75.20
2018-07-23T08:35:06.603Z,73.80
2018-07-23T08:37:36.562Z,72.80
2018-07-23T08:40:06.687Z,72.60
2018-07-23T08:42:36.731Z,72.40
2018-07-23T08:45:06.530Z,72.50
2018-07-23T08:47:35.778Z,73.90
2018-07-23T08:50:06.957Z,72.80
2018-07-23T08:52:36.787Z,75.20
2018-07-23T08:55:07.266Z,76.60
2018-07-23T08:57:36.904Z,74.60
2018-07-23T09:00:07.302Z,74.80
2018-07-23T09:02:37.506Z,74.90
2018-07-23T09:05:08.007Z,75.60
2018-07-23T09:07:38.282Z,76.10
2018-07-23T09:10:08.619Z,76.60
2018-07-23T09:12:39.496Z,76.20
2018-07-23T09:15:11.312Z,76.90
2018-07-23T09:17:41.613Z,76.30
2018-07-23T09:20:12.720Z,77.30
2018-07-23T09:22:42.811Z,76.10
2018-07-23T09:25:13.439Z,77.30
2018-07-23T09:27:43.422Z,76.30
2018-07-23T09:30:18.874Z,77.30
2018-07-23T09:32:49.618Z,75.10
2018-07-23T09:35:19.199Z,75.80
2018-07-23T09:37:49.723Z,76.40
2018-07-23T09:40:19.638Z,77.10
2018-07-23T09:42:50.416Z,76.10
2018-07-23T09:45:21.267Z,76.60
2018-07-23T09:47:51.338Z,76.80
2018-07-23T09:50:20.751Z,76.20
2018-07-23T09:52:52.233Z,75.00
2018-07-23T09:55:23.446Z,75.70
2018-07-23T09:57:55.315Z,76.60
2018-07-23T10:00:30.407Z,76.60
2018-07-23T10:05:30.478Z,77.70
2018-07-23T10:08:00.716Z,77.30
2018-07-23T10:10:30.764Z,77.50
2018-07-23T10:13:00.427Z,76.80
2018-07-23T10:15:30.491Z,78.70
2018-07-23T10:18:00.439Z,79.00
2018-07-23T10:20:31.157Z,77.80
2018-07-23T10:23:01.951Z,79.70
2018-07-23T10:25:31.482Z,79.90
2018-07-23T10:28:01.528Z,78.30
2018-07-23T10:30:32.202Z,77.70
2018-07-23T10:33:02.363Z,78.40
2018-07-23T10:35:32.548Z,76.80
2018-07-23T10:38:03.139Z,75.40
2018-07-23T10:40:33.702Z,76.50
2018-07-23T10:43:04.359Z,77.20
2018-07-23T10:45:33.963Z,77.10
2018-07-23T10:48:04.169Z,75.90
2018-07-23T10:50:34.454Z,76.60
2018-07-23T10:53:03.927Z,76.80
2018-07-23T10:55:34.019Z,75.30
2018-07-23T10:58:03.902Z,76.00
2018-07-23T11:00:33.517Z,74.70
2018-07-23T11:03:04.367Z,72.80
2018-07-23T11:05:34.691Z,74.10
2018-07-23T11:08:04.493Z,74.10
2018-07-23T11:10:33.901Z,74.00
2018-07-23T11:13:03.936Z,72.10
2018-07-23T11:15:33.810Z,72.50
2018-07-23T11:18:04.330Z,72.40
2018-07-23T11:20:34.831Z,72.60
2018-07-23T11:23:05.061Z,72.40
2018-07-23T11:25:39.179Z,73.50
2018-07-23T11:30:34.478Z,72.40
2018-07-23T11:33:05.062Z,70.20
2018-07-23T11:35:34.834Z,71.00
2018-07-23T11:38:06.279Z,67.60
2018-07-23T11:40:37.263Z,68.40
2018-07-23T11:43:07.338Z,68.70
2018-07-23T11:45:38.221Z,70.00
2018-07-23T11:48:07.834Z,69.80
2018-07-23T11:50:38.965Z,69.00
2018-07-23T11:53:08.503Z,70.70
2018-07-23T11:55:38.842Z,68.80
2018-07-23T12:00:39.529Z,68.50
2018-07-23T12:03:10.075Z,69.10
2018-07-23T12:05:40.474Z,69.40
2018-07-23T12:08:11.377Z,69.90
2018-07-23T12:10:41.073Z,70.00
2018-07-23T12:13:11.138Z,68.50
2018-07-23T12:15:41.471Z,69.50
2018-07-23T12:18:11.610Z,66.80
2018-07-23T12:20:42.487Z,67.90
2018-07-23T12:23:11.674Z,67.40
2018-07-23T12:25:42.321Z,66.20
2018-07-23T12:28:12.038Z,65.70
2018-07-23T12:30:42.370Z,64.80
2018-07-23T12:33:13.122Z,64.80
2018-07-23T12:35:42.628Z,67.00
2018-07-23T12:38:14.255Z,67.10
2018-07-23T12:40:44.375Z,67.80
2018-07-23T12:43:13.554Z,64.70
2018-07-23T12:45:43.310Z,65.30
2018-07-23T12:48:13.194Z,66.40
2018-07-23T12:50:43.997Z,64.20
2018-07-23T12:53:13.938Z,64.60
2018-07-23T12:55:43.889Z,64.20
2018-07-23T12:58:14.274Z,64.90
2018-07-23T13:00:44.257Z,63.70
2018-07-23T13:03:13.823Z,63.60
2018-07-23T13:05:43.663Z,62.50
2018-07-23T13:08:12.739Z,63.30
2018-07-23T13:10:42.565Z,62.50
2018-07-23T13:13:12.414Z,62.70
2018-07-23T13:15:43.341Z,63.60
2018-07-23T13:18:13.439Z,62.40
2018-07-23T13:20:43.456Z,60.30
2018-07-23T13:23:13.298Z,61.90
2018-07-23T13:25:43.656Z,63.20
2018-07-23T13:28:13.102Z,61.70
2018-07-23T13:30:43.126Z,62.30
2018-07-23T13:33:12.422Z,61.40
2018-07-23T13:35:42.339Z,62.00
2018-07-23T13:38:12.895Z,62.70
2018-07-23T13:40:42.346Z,61.10
2018-07-23T13:43:11.531Z,60.10
2018-07-23T13:45:43.369Z,62.00
2018-07-23T13:48:13.219Z,59.00
2018-07-23T13:50:42.581Z,59.40
2018-07-23T13:53:13.357Z,61.00
2018-07-23T13:55:43.495Z,59.90
2018-07-23T13:58:13.782Z,58.70
2018-07-23T14:00:45.192Z,59.50
2018-07-23T14:03:14.825Z,59.60
2018-07-23T14:05:44.987Z,59.00
2018-07-23T14:10:45.278Z,59.80
2018-07-23T14:13:15.674Z,58.80
2018-07-23T14:15:46.046Z,58.40
2018-07-23T14:18:16.208Z,59.40
2018-07-23T14:20:46.614Z,60.10
2018-07-23T14:23:16.450Z,59.30
2018-07-23T14:25:45.812Z,59.80
2018-07-23T14:28:15.753Z,58.50
2018-07-23T14:30:45.095Z,59.00
2018-07-23T14:33:14.774Z,58.30
2018-07-23T14:35:44.768Z,59.10
2018-07-23T14:38:14.250Z,56.90
2018-07-23T14:40:44.001Z,57.40
2018-07-23T14:45:43.466Z,58.30
2018-07-23T14:48:13.703Z,57.30
2018-07-23T14:50:44.594Z,57.90
2018-07-23T14:53:15.416Z,56.30
2018-07-23T14:55:46.656Z,57.30
2018-07-23T14:58:16.207Z,58.00
2018-07-23T15:00:46.214Z,56.60
2018-07-23T15:03:16.347Z,56.80
2018-07-23T15:05:50.889Z,57.50
2018-07-23T15:08:20.549Z,56.40
2018-07-23T15:10:50.505Z,56.20
2018-07-23T15:13:21.481Z,56.10
2018-07-23T15:15:50.947Z,56.70
2018-07-23T15:18:21.847Z,55.50
2018-07-23T15:20:52.349Z,56.10
2018-07-23T15:25:53.238Z,55.90
2018-07-23T15:28:22.734Z,55.00
2018-07-23T15:30:53.341Z,55.50
2018-07-23T15:33:24.239Z,54.80
2018-07-23T15:35:53.429Z,54.40
2018-07-23T15:38:23.836Z,53.60
2018-07-23T15:40:53.721Z,53.60
2018-07-23T15:43:23.395Z,54.10
2018-07-23T15:45:53.037Z,53.10
2018-07-23T15:48:22.567Z,53.40
2018-07-23T15:50:53.779Z,54.50
2018-07-23T15:53:24.307Z,53.00
2018-07-23T15:55:55.534Z,53.50
2018-07-23T15:58:25.548Z,53.70
2018-07-23T16:00:56.830Z,54.00
2018-07-23T16:03:26.070Z,53.50
2018-07-23T16:05:57.214Z,54.40
2018-07-23T16:08:27.159Z,53.60
2018-07-23T16:10:56.995Z,52.70
2018-07-23T16:13:27.161Z,53.30
2018-07-23T16:15:56.618Z,52.90
2018-07-23T16:18:27.054Z,53.40
2018-07-23T16:20:57.254Z,53.80
2018-07-23T16:23:31.069Z,52.10
2018-07-23T16:26:01.666Z,52.70
2018-07-23T16:28:31.454Z,52.20
2018-07-23T16:31:02.388Z,52.80
2018-07-23T16:33:32.136Z,52.30
2018-07-23T16:36:02.357Z,52.30
2018-07-23T16:38:32.310Z,52.90
2018-07-23T16:43:31.330Z,51.40
2018-07-23T16:46:01.578Z,52.00
2018-07-23T16:48:31.238Z,52.10
2018-07-23T16:51:01.022Z,55.10
2018-07-23T16:53:30.706Z,52.20
2018-07-23T16:56:00.182Z,52.70
2018-07-23T16:58:29.736Z,52.40
2018-07-23T17:00:59.354Z,56.30
2018-07-23T17:05:59.494Z,53.90
2018-07-23T17:08:30.210Z,53.00
2018-07-23T17:11:00.241Z,53.40
2018-07-23T17:13:29.574Z,54.00
2018-07-23T17:15:58.937Z,54.60
2018-07-23T17:18:29.446Z,55.00
2018-07-23T17:20:59.418Z,55.70
2018-07-23T17:23:29.840Z,55.50
2018-07-23T17:25:59.790Z,56.80
2018-07-23T17:28:29.742Z,55.40
2018-07-23T17:30:59.706Z,55.20
2018-07-23T17:33:29.586Z,55.70
2018-07-23T17:36:00.713Z,55.70
2018-07-23T17:38:30.733Z,56.20
2018-07-23T17:41:01.742Z,55.80
2018-07-23T17:43:31.797Z,55.80
2018-07-23T17:46:01.093Z,57.20
2018-07-23T17:48:30.794Z,56.10
2018-07-23T17:53:29.470Z,55.70
2018-07-23T17:55:59.066Z,56.00
2018-07-23T17:58:29.473Z,56.40
2018-07-23T18:01:00.072Z,57.50
2018-07-23T18:03:30.726Z,56.90
2018-07-23T18:06:01.521Z,57.30
2018-07-23T18:08:31.366Z,57.20
2018-07-23T18:11:01.168Z,57.90
2018-07-23T18:13:31.062Z,58.70
2018-07-23T18:16:01.246Z,58.60
2018-07-23T18:18:31.352Z,57.50
2018-07-23T18:21:01.098Z,58.10
2018-07-23T18:23:31.109Z,58.00
2018-07-23T18:26:01.142Z,59.10
2018-07-23T18:28:30.728Z,58.30
2018-07-23T18:31:01.174Z,58.60
2018-07-23T18:33:31.281Z,59.20
2018-07-23T18:36:01.583Z,59.10
2018-07-23T18:38:31.619Z,58.40
2018-07-23T18:41:02.176Z,59.00
2018-07-23T18:43:33.094Z,59.40
2018-07-23T18:46:03.206Z,60.00
2018-07-23T18:52:14.222Z,60.60
2018-07-23T18:54:45.865Z,62.50
2018-07-23T18:57:15.054Z,61.30
2018-07-23T18:59:45.551Z,62.00
2018-07-23T19:02:18.014Z,61.70
2018-07-23T19:04:47.598Z,62.50
2018-07-23T19:07:18.329Z,61.50
2018-07-23T19:09:48.300Z,62.40
2018-07-23T19:12:17.942Z,63.00
2018-07-23T19:14:48.058Z,63.90
2018-07-23T19:17:17.642Z,65.00
2018-07-23T19:19:48.293Z,65.80
2018-07-23T19:22:18.559Z,66.30
2018-07-23T19:24:48.918Z,69.00
2018-07-23T19:27:19.384Z,68.70
2018-07-23T19:29:49.772Z,69.40
2018-07-23T19:32:19.394Z,70.00
2018-07-23T19:37:19.934Z,72.00
2018-07-23T19:39:49.253Z,72.10
2018-07-23T19:42:20.037Z,73.70
2018-07-23T19:44:49.906Z,75.60
2018-07-23T19:47:20.342Z,73.30
2018-07-23T19:49:50.339Z,73.80
2018-07-23T19:52:20.381Z,77.60
2018-07-23T19:54:49.714Z,78.00
2018-07-23T19:57:21.166Z,79.00
2018-07-23T20:02:20.550Z,80.00
2018-07-23T20:04:52.098Z,82.30
2018-07-23T20:07:22.219Z,81.20
2018-07-23T20:09:51.982Z,82.60
2018-07-23T20:12:21.918Z,83.40
2018-07-23T20:14:52.021Z,85.60
2018-07-23T20:19:52.895Z,84.50
2018-07-23T20:22:22.798Z,86.10
2018-07-23T20:24:52.614Z,86.90
2018-07-23T20:27:23.095Z,85.70
2018-07-23T20:29:52.965Z,86.60
2018-07-23T20:32:22.211Z,88.10
2018-07-23T20:34:52.229Z,89.60
2018-07-23T20:37:22.959Z,89.00
2018-07-23T20:39:52.510Z,90.20
2018-07-23T20:42:22.315Z,90.40
2018-07-23T20:44:51.455Z,90.50
2018-07-23T20:47:22.166Z,90.80
2018-07-23T20:49:51.758Z,90.30
2018-07-23T20:52:21.246Z,90.60
2018-07-23T20:54:50.856Z,90.70
2018-07-23T20:57:20.342Z,91.00
2018-07-23T20:59:50.353Z,91.30
2018-07-23T21:02:20.194Z,91.60
2018-07-23T21:04:49.355Z,91.50
2018-07-23T21:07:18.821Z,91.90
2018-07-23T21:09:49.298Z,92.20
2018-07-23T21:12:18.941Z,91.80
2018-07-23T21:14:48.955Z,92.30
2018-07-23T21:17:19.769Z,91.70
2018-07-23T21:19:50.862Z,92.00
2018-07-23T21:22:22.167Z,91.70
2018-07-23T21:24:52.461Z,91.90
2018-07-23T21:27:22.551Z,92.20
2018-07-23T21:29:52.190Z,92.70
2018-07-23T21:32:22.226Z,92.40
2018-07-23T21:34:51.888Z,92.80
2018-07-23T21:37:21.934Z,93.10
2018-07-23T21:39:51.863Z,93.40
2018-07-23T21:44:53.451Z,93.30
2018-07-23T21:47:23.294Z,93.30
2018-07-23T21:49:53.696Z,93.60
2018-07-23T21:52:24.311Z,93.80
2018-07-23T21:54:55.328Z,94.10
2018-07-23T21:57:24.457Z,94.00
2018-07-23T21:59:54.902Z,94.30
2018-07-23T22:02:24.926Z,94.30
2018-07-23T22:04:56.233Z,94.30
2018-07-23T22:07:26.623Z,94.30
2018-07-23T22:09:56.216Z,94.70
2018-07-23T22:15:00.786Z,94.60
2018-07-23T22:17:31.786Z,94.50
2018-07-23T22:20:03.647Z,94.50
2018-07-23T22:22:33.538Z,94.80
2018-07-23T22:25:03.977Z,94.60
2018-07-23T22:27:35.309Z,95.00
2018-07-23T22:30:05.115Z,95.00
2018-07-23T22:32:35.211Z,94.80
2018-07-23T22:35:05.190Z,95.10
2018-07-23T22:37:35.167Z,95.70
2018-07-23T22:40:05.313Z,95.10
2018-07-23T22:42:35.246Z,95.40
2018-07-23T22:45:05.790Z,95.50
2018-07-23T22:47:35.258Z,95.50
2018-07-23T22:50:04.557Z,95.80
2018-07-23T22:52:34.771Z,95.60
2018-07-23T22:55:04.094Z,95.60
2018-07-23T22:57:34.135Z,95.20
2018-07-23T23:00:03.910Z,95.60
2018-07-23T23:02:33.950Z,95.80
2018-07-23T23:05:04.609Z,95.80
2018-07-23T23:07:34.178Z,95.70
2018-07-23T23:10:05.726Z,95.90
